Time;durP1;ratioP1;P1;durP2;ratioP2;P2;SDS_P1;SDS_P2;PMS_P1;PMS_P2;Temp;Humidity;BMP_temperature;BMP_pressure;BME280_temperature;BME280_humidity;BME280_pressure;Samples;Min_cycle;Max_cycle;Signal;HPM_P1;HPM_P2
2021/08/12 00:00:29;;;;;;;12.83;11.57;;;18.10;98.30;;;;;;4227331;28;20492;-81
2021/08/12 00:02:32;;;;;;;12.53;11.23;;;18.00;98.30;;;;;;4227478;28;20764;-81
2021/08/12 00:04:35;;;;;;;14.00;10.77;;;18.00;98.30;;;;;;4230519;28;20461;-81
2021/08/12 00:06:39;;;;;;;14.30;10.80;;;18.00;98.30;;;;;;4231085;28;20827;-82
2021/08/12 00:08:42;;;;;;;12.13;10.93;;;17.90;98.30;;;;;;4228218;28;20999;-81
2021/08/12 00:10:50;;;;;;;13.53;10.90;;;17.90;98.30;;;;;;4228073;28;20464;-81
2021/08/12 00:12:52;;;;;;;12.57;11.27;;;17.80;98.30;;;;;;4228746;28;20460;-82
2021/08/12 00:14:56;;;;;;;14.13;11.63;;;17.90;98.30;;;;;;4232232;28;20482;-81
2021/08/12 00:16:59;;;;;;;12.50;11.30;;;17.80;98.30;;;;;;4229186;28;20964;-81
2021/08/12 00:19:03;;;;;;;10.93;9.87;;;17.80;98.30;;;;;;4228347;28;20827;-81
2021/08/12 00:21:05;;;;;;;12.77;10.47;;;17.70;98.30;;;;;;4229295;28;20495;-80
2021/08/12 00:23:11;;;;;;;10.37;9.17;;;17.70;98.30;;;;;;4230432;28;20884;-81
2021/08/12 00:25:14;;;;;;;10.40;9.27;;;17.80;98.30;;;;;;4229036;28;20457;-82
2021/08/12 00:27:17;;;;;;;10.83;9.77;;;17.80;98.30;;;;;;4231709;28;20464;-82
2021/08/12 00:29:19;;;;;;;11.60;10.60;;;17.90;98.30;;;;;;4231607;28;20830;-81
2021/08/12 00:31:22;;;;;;;12.40;11.23;;;17.90;98.30;;;;;;4228381;28;20836;-81
2021/08/12 00:33:25;;;;;;;10.97;9.87;;;18.00;98.30;;;;;;4226524;28;20472;-79
2021/08/12 00:35:28;;;;;;;11.13;9.60;;;18.00;98.30;;;;;;4231174;28;20475;-82
2021/08/12 00:37:31;;;;;;;11.43;10.33;;;17.90;98.30;;;;;;4226415;28;20480;-80
2021/08/12 00:39:35;;;;;;;11.47;10.27;;;17.90;98.30;;;;;;4230562;28;20465;-81
2021/08/12 00:41:40;;;;;;;17.33;10.70;;;17.90;98.30;;;;;;4229660;28;20480;-81
2021/08/12 00:43:42;;;;;;;11.23;10.07;;;17.90;98.30;;;;;;4228827;28;20464;-82
2021/08/12 00:45:46;;;;;;;11.93;10.07;;;17.90;98.30;;;;;;4231322;28;20468;-82
2021/08/12 00:47:49;;;;;;;15.10;10.93;;;17.90;98.30;;;;;;4228459;28;20493;-82
2021/08/12 00:49:52;;;;;;;11.10;9.93;;;17.80;98.30;;;;;;4229784;28;20971;-82
2021/08/12 00:51:54;;;;;;;13.87;11.00;;;17.80;98.30;;;;;;4228621;28;20571;-81
2021/08/12 00:53:58;;;;;;;14.07;10.70;;;17.80;98.30;;;;;;4225728;28;20565;-82
2021/08/12 00:56:02;;;;;;;12.73;10.33;;;17.90;98.30;;;;;;4230828;28;20552;-81
2021/08/12 00:58:06;;;;;;;10.50;9.57;;;17.90;98.30;;;;;;4229395;28;20495;-81
2021/08/12 01:00:11;;;;;;;12.03;10.77;;;17.80;98.30;;;;;;4226316;28;20466;-81
2021/08/12 01:02:17;;;;;;;12.57;10.50;;;17.90;98.30;;;;;;4222114;28;20509;-81
2021/08/12 01:04:20;;;;;;;10.90;9.90;;;17.90;98.30;;;;;;4230418;28;20561;-81
2021/08/12 01:06:28;;;;;;;10.67;9.57;;;17.90;98.30;;;;;;4229074;28;20496;-81
2021/08/12 01:08:40;;;;;;;11.50;9.70;;;17.80;98.30;;;;;;4228509;28;20499;-81
2021/08/12 01:10:47;;;;;;;11.30;10.10;;;17.80;98.30;;;;;;4230540;28;20469;-80
2021/08/12 01:12:58;;;;;;;16.43;12.17;;;17.80;98.30;;;;;;4224239;28;20466;-80
2021/08/12 01:15:05;;;;;;;14.53;10.60;;;17.80;98.30;;;;;;4229481;28;20906;-81
2021/08/12 01:17:11;;;;;;;15.10;10.47;;;17.80;98.30;;;;;;4222738;28;20506;-82
2021/08/12 01:20:01;;;;;;;11.57;10.47;;;17.70;98.30;;;;;;4227801;28;20987;-82
2021/08/12 01:22:06;;;;;;;12.23;10.87;;;17.70;98.30;;;;;;4219397;28;20495;-82
2021/08/12 01:24:12;;;;;;;10.47;9.33;;;17.70;98.30;;;;;;4227980;28;20837;-83
2021/08/12 01:26:21;;;;;;;12.23;10.83;;;17.60;98.30;;;;;;4229118;28;20537;-82
2021/08/12 01:28:30;;;;;;;12.80;10.50;;;17.50;98.30;;;;;;4228829;28;20484;-82
2021/08/12 01:30:44;;;;;;;12.27;11.07;;;17.50;98.30;;;;;;4230805;28;20825;-82
2021/08/12 01:32:57;;;;;;;12.33;10.40;;;17.50;98.30;;;;;;4228716;28;20468;-81
2021/08/12 01:35:05;;;;;;;11.63;10.53;;;17.50;98.30;;;;;;4231985;28;20535;-81
2021/08/12 01:37:11;;;;;;;12.87;11.57;;;17.40;98.30;;;;;;4228346;28;20453;-81
2021/08/12 01:39:16;;;;;;;11.70;10.10;;;17.50;98.30;;;;;;4230622;28;20473;-81
2021/08/12 01:41:21;;;;;;;14.27;10.77;;;17.40;98.30;;;;;;4230062;28;20545;-81
2021/08/12 01:43:25;;;;;;;13.47;9.43;;;17.40;98.30;;;;;;4229968;28;20476;-81
2021/08/12 01:45:29;;;;;;;11.73;10.60;;;17.30;98.30;;;;;;4229093;28;20468;-82
2021/08/12 01:47:35;;;;;;;12.30;10.87;;;17.30;98.30;;;;;;4230911;28;20556;-82
2021/08/12 01:49:40;;;;;;;12.80;10.50;;;17.30;98.30;;;;;;4230895;28;20473;-81
2021/08/12 01:51:45;;;;;;;12.20;10.70;;;17.30;98.30;;;;;;4228583;28;20457;-81
2021/08/12 01:53:50;;;;;;;11.40;10.30;;;17.30;98.30;;;;;;4228533;28;20466;-81
2021/08/12 01:55:54;;;;;;;12.20;10.80;;;17.20;98.30;;;;;;4230099;28;20916;-81
2021/08/12 01:57:59;;;;;;;11.97;10.87;;;17.20;98.30;;;;;;4230758;28;20472;-81
2021/08/12 02:00:04;;;;;;;10.67;9.57;;;17.20;98.30;;;;;;4232182;28;20464;-81
2021/08/12 02:02:11;;;;;;;13.53;11.07;;;17.10;98.30;;;;;;4226208;28;20480;-81
2021/08/12 02:04:18;;;;;;;12.67;11.47;;;17.20;98.30;;;;;;4229564;28;21444;-81
2021/08/12 02:06:22;;;;;;;13.63;11.87;;;17.20;98.30;;;;;;4229876;28;20468;-81
2021/08/12 02:08:27;;;;;;;13.10;11.60;;;17.20;98.30;;;;;;4228486;28;20535;-81
2021/08/12 02:10:30;;;;;;;12.10;10.80;;;17.20;98.30;;;;;;4229499;28;20473;-81
2021/08/12 02:12:32;;;;;;;12.20;11.00;;;17.10;98.30;;;;;;4232173;28;20471;-82
2021/08/12 02:14:36;;;;;;;12.70;11.30;;;17.10;98.30;;;;;;4228985;28;20509;-81
2021/08/12 02:16:39;;;;;;;12.53;10.70;;;17.00;98.30;;;;;;4231777;28;20475;-82
2021/08/12 02:18:43;;;;;;;11.87;10.77;;;17.00;98.30;;;;;;4229539;28;20492;-82
2021/08/12 02:20:50;;;;;;;12.47;11.27;;;16.90;98.30;;;;;;4229019;28;20468;-82
2021/08/12 02:22:58;;;;;;;12.53;11.37;;;16.90;98.30;;;;;;4229735;28;20476;-82
2021/08/12 02:25:08;;;;;;;12.27;11.17;;;16.80;98.30;;;;;;4229400;28;20464;-82
2021/08/12 02:27:16;;;;;;;12.00;10.70;;;16.80;98.30;;;;;;4226862;28;20469;-82
2021/08/12 02:29:20;;;;;;;15.00;10.50;;;16.70;98.30;;;;;;4235731;28;20475;-81
2021/08/12 02:31:24;;;;;;;12.00;10.70;;;16.60;98.30;;;;;;4232595;28;20532;-82
2021/08/12 02:33:33;;;;;;;13.40;11.00;;;16.60;98.30;;;;;;4233400;28;20461;-82
2021/08/12 02:35:38;;;;;;;13.80;10.73;;;16.50;98.30;;;;;;4232150;28;20556;-81
2021/08/12 02:37:42;;;;;;;14.33;11.30;;;16.50;98.30;;;;;;4221228;28;20480;-81
2021/08/12 02:39:47;;;;;;;13.13;11.80;;;16.50;98.30;;;;;;4233212;28;20465;-82
2021/08/12 02:41:53;;;;;;;12.77;11.47;;;16.50;98.30;;;;;;4229861;28;20485;-82
2021/08/12 02:43:56;;;;;;;13.50;10.97;;;16.30;98.30;;;;;;4228745;28;20986;-82
2021/08/12 02:46:03;;;;;;;11.40;10.40;;;16.30;98.30;;;;;;4232971;28;20469;-81
2021/08/12 02:48:09;;;;;;;12.90;11.60;;;16.30;98.30;;;;;;4230175;28;20489;-83
2021/08/12 02:50:13;;;;;;;12.47;10.60;;;16.30;98.30;;;;;;4232044;28;21170;-81
2021/08/12 02:52:16;;;;;;;12.10;10.40;;;16.40;98.30;;;;;;4231669;28;20468;-81
2021/08/12 02:54:20;;;;;;;12.30;11.03;;;16.40;98.30;;;;;;4232448;28;20932;-81
2021/08/12 02:56:25;;;;;;;12.53;11.33;;;16.40;98.30;;;;;;4233254;28;20467;-82
2021/08/12 02:58:32;;;;;;;12.50;11.30;;;16.40;98.30;;;;;;4227160;28;20506;-82
2021/08/12 03:00:36;;;;;;;13.03;10.77;;;16.40;98.30;;;;;;4228875;28;20479;-82
2021/08/12 03:02:40;;;;;;;13.77;12.00;;;16.30;98.30;;;;;;4229006;28;20488;-81
2021/08/12 03:04:44;;;;;;;12.27;11.00;;;16.30;98.30;;;;;;4227682;28;20980;-81
2021/08/12 03:06:49;;;;;;;11.70;10.60;;;16.30;98.30;;;;;;4230810;28;20801;-81
2021/08/12 03:08:55;;;;;;;13.00;11.60;;;16.30;98.30;;;;;;4230764;28;20480;-83
2021/08/12 03:10:59;;;;;;;11.53;10.40;;;16.20;98.30;;;;;;4233781;28;20489;-81
2021/08/12 03:13:02;;;;;;;13.07;10.97;;;16.20;98.30;;;;;;4233844;28;20468;-82
2021/08/12 03:15:09;;;;;;;12.40;11.20;;;16.20;98.30;;;;;;4231470;28;20465;-82
2021/08/12 03:17:12;;;;;;;12.13;10.93;;;16.10;98.30;;;;;;4228959;28;20823;-81
2021/08/12 03:19:16;;;;;;;13.77;12.37;;;16.10;98.30;;;;;;4233468;28;20477;-82
2021/08/12 03:21:19;;;;;;;13.40;11.37;;;16.10;98.30;;;;;;4230512;28;20465;-82
2021/08/12 03:23:22;;;;;;;11.70;10.50;;;16.00;98.30;;;;;;4234090;28;20867;-81
2021/08/12 03:25:26;;;;;;;12.70;11.50;;;16.10;98.30;;;;;;4230489;28;20465;-82
2021/08/12 03:27:29;;;;;;;12.13;10.60;;;16.10;98.30;;;;;;4230682;28;20492;-81
2021/08/12 03:29:32;;;;;;;11.93;10.73;;;16.20;98.30;;;;;;4234876;28;20465;-81
2021/08/12 03:31:36;;;;;;;12.87;11.53;;;16.20;98.30;;;;;;4230687;28;20964;-81
2021/08/12 03:33:41;;;;;;;14.83;10.60;;;16.30;98.30;;;;;;4233935;28;20461;-82
2021/08/12 03:35:44;;;;;;;12.60;10.67;;;16.30;98.30;;;;;;4235291;28;20473;-82
2021/08/12 03:37:46;;;;;;;14.87;13.30;;;16.30;98.30;;;;;;4225985;28;20485;-81
2021/08/12 03:39:49;;;;;;;12.87;11.67;;;16.40;98.30;;;;;;4228361;28;20570;-81
2021/08/12 03:41:52;;;;;;;13.03;11.57;;;16.30;98.30;;;;;;4231520;28;20464;-81
2021/08/12 03:43:55;;;;;;;13.93;11.20;;;16.20;98.30;;;;;;4233110;28;20568;-81
2021/08/12 03:45:58;;;;;;;12.97;11.60;;;16.20;98.30;;;;;;4230746;28;20471;-81
2021/08/12 03:48:03;;;;;;;12.33;11.13;;;16.10;98.30;;;;;;4227039;28;20492;-82
2021/08/12 03:50:06;;;;;;;12.47;10.90;;;16.00;98.30;;;;;;4230333;28;20469;-82
2021/08/12 03:52:09;;;;;;;12.30;11.10;;;16.10;98.30;;;;;;4229892;28;20461;-82
2021/08/12 03:54:12;;;;;;;13.37;12.17;;;16.10;98.30;;;;;;4229295;28;20530;-81
2021/08/12 03:56:15;;;;;;;12.83;10.80;;;16.00;98.30;;;;;;4233634;28;20465;-81
2021/08/12 03:58:18;;;;;;;12.70;11.40;;;16.10;98.30;;;;;;4229704;28;20485;-81
2021/08/12 04:00:21;;;;;;;12.80;11.60;;;16.10;98.30;;;;;;4231933;28;20461;-81
2021/08/12 04:02:24;;;;;;;16.70;11.73;;;16.10;98.30;;;;;;4225006;28;20462;-81
2021/08/12 04:04:28;;;;;;;18.80;11.97;;;16.00;98.30;;;;;;4230919;28;20461;-81
2021/08/12 04:06:31;;;;;;;13.17;11.20;;;16.00;98.30;;;;;;4227807;28;20465;-81
2021/08/12 04:08:35;;;;;;;13.23;11.30;;;16.00;98.30;;;;;;4232034;28;20491;-82
2021/08/12 04:10:38;;;;;;;12.47;11.27;;;16.10;98.30;;;;;;4231736;28;20876;-81
2021/08/12 04:12:41;;;;;;;13.27;12.03;;;16.00;98.30;;;;;;4232258;28;20457;-81
2021/08/12 04:14:44;;;;;;;14.23;12.83;;;16.00;98.30;;;;;;4232099;28;20832;-82
2021/08/12 04:16:46;;;;;;;13.70;12.33;;;16.00;98.30;;;;;;4230771;28;20506;-81
2021/08/12 04:18:49;;;;;;;11.20;9.97;;;16.00;98.30;;;;;;4230106;28;20523;-81
2021/08/12 04:20:54;;;;;;;13.17;11.77;;;16.00;98.30;;;;;;4234229;28;20468;-81
2021/08/12 04:22:57;;;;;;;12.27;11.10;;;16.00;98.30;;;;;;4233249;28;20491;-81
2021/08/12 04:24:59;;;;;;;14.13;11.40;;;15.90;98.30;;;;;;4231741;28;20544;-81
2021/08/12 04:27:03;;;;;;;14.03;12.63;;;15.90;98.30;;;;;;4229742;28;20470;-82
2021/08/12 04:29:05;;;;;;;12.60;11.40;;;15.90;98.30;;;;;;4233127;28;20473;-82
2021/08/12 04:31:09;;;;;;;13.73;11.27;;;15.90;98.30;;;;;;4226190;28;20466;-81
2021/08/12 04:33:12;;;;;;;12.10;10.80;;;16.00;98.30;;;;;;4229071;28;20457;-80
2021/08/12 04:35:15;;;;;;;12.63;11.43;;;16.00;98.30;;;;;;4228817;28;20833;-80
2021/08/12 04:37:19;;;;;;;11.70;10.70;;;16.00;98.30;;;;;;4228236;28;20546;-81
2021/08/12 04:39:22;;;;;;;12.07;10.97;;;16.00;98.30;;;;;;4232599;28;20469;-81
2021/08/12 04:41:25;;;;;;;12.87;11.57;;;15.90;98.30;;;;;;4233950;28;20479;-81
2021/08/12 04:43:28;;;;;;;11.87;10.63;;;16.00;98.30;;;;;;4228267;28;20492;-82
2021/08/12 04:45:31;;;;;;;11.33;10.23;;;16.00;98.30;;;;;;4227565;28;20955;-82
2021/08/12 04:47:34;;;;;;;12.50;11.27;;;16.10;98.30;;;;;;4227970;28;20488;-83
2021/08/12 04:49:37;;;;;;;13.07;11.03;;;16.10;98.30;;;;;;4229421;28;20469;-82
2021/08/12 04:51:42;;;;;;;17.73;11.40;;;16.10;98.30;;;;;;4230403;28;20461;-82
2021/08/12 04:53:46;;;;;;;11.47;10.23;;;16.20;98.30;;;;;;4229987;28;20469;-83
2021/08/12 04:55:49;;;;;;;12.50;11.30;;;16.30;98.30;;;;;;4233018;28;20460;-82
2021/08/12 04:57:52;;;;;;;11.60;10.50;;;16.30;98.30;;;;;;4230448;28;20882;-80
2021/08/12 04:59:55;;;;;;;11.93;10.83;;;16.30;98.30;;;;;;4227338;28;20465;-82
2021/08/12 05:01:58;;;;;;;11.47;10.27;;;16.40;98.30;;;;;;4231906;28;20465;-81
2021/08/12 05:04:01;;;;;;;11.10;10.10;;;16.30;98.30;;;;;;4232473;28;20480;-80
2021/08/12 05:06:05;;;;;;;12.20;10.13;;;16.40;98.30;;;;;;4221879;28;20468;-82
2021/08/12 05:08:08;;;;;;;12.73;10.83;;;16.40;98.30;;;;;;4233797;28;20570;-81
2021/08/12 05:10:12;;;;;;;11.40;10.20;;;16.40;98.30;;;;;;4232634;28;20470;-81
2021/08/12 05:12:19;;;;;;;11.60;10.50;;;16.50;98.30;;;;;;4229077;28;20471;-81
2021/08/12 05:14:22;;;;;;;12.20;11.00;;;16.50;98.30;;;;;;4231720;28;20472;-81
2021/08/12 05:16:26;;;;;;;11.80;10.43;;;16.50;98.30;;;;;;4231960;28;20472;-82
2021/08/12 05:18:29;;;;;;;12.10;9.80;;;16.50;98.30;;;;;;4228280;28;20596;-82
2021/08/12 05:20:31;;;;;;;11.13;9.63;;;16.60;98.30;;;;;;4227789;28;20514;-82
2021/08/12 05:22:34;;;;;;;13.03;11.20;;;16.60;98.30;;;;;;4233322;28;20467;-81
2021/08/12 05:24:37;;;;;;;11.83;10.63;;;16.70;98.30;;;;;;4228964;28;20486;-82
2021/08/12 05:26:42;;;;;;;11.20;10.03;;;16.70;98.30;;;;;;4231070;28;20469;-81
2021/08/12 05:28:45;;;;;;;11.60;10.30;;;16.70;98.30;;;;;;4228982;28;20495;-81
2021/08/12 05:30:48;;;;;;;11.63;10.53;;;16.70;98.30;;;;;;4228231;28;20459;-81
2021/08/12 05:32:51;;;;;;;12.43;9.97;;;16.60;98.30;;;;;;4230422;28;20483;-81
2021/08/12 05:34:54;;;;;;;10.93;9.80;;;16.60;98.30;;;;;;4231724;28;20877;-82
2021/08/12 05:36:59;;;;;;;11.97;9.90;;;16.70;98.30;;;;;;4234212;28;20497;-81
2021/08/12 05:39:02;;;;;;;11.53;10.43;;;16.70;98.30;;;;;;4232470;28;20475;-81
2021/08/12 05:41:05;;;;;;;12.53;10.10;;;16.70;98.30;;;;;;4233776;28;20471;-81
2021/08/12 05:43:09;;;;;;;10.70;9.60;;;16.80;98.30;;;;;;4234238;28;20481;-81
2021/08/12 05:45:12;;;;;;;11.43;9.60;;;16.80;98.30;;;;;;4233693;28;20469;-81
2021/08/12 05:47:15;;;;;;;12.40;10.40;;;16.90;98.30;;;;;;4227550;28;20465;-80
2021/08/12 05:49:22;;;;;;;28.73;11.83;;;16.90;98.30;;;;;;4231398;28;20467;-81
2021/08/12 05:51:25;;;;;;;11.10;10.00;;;16.90;98.30;;;;;;4232748;28;20848;-81
2021/08/12 05:53:30;;;;;;;10.13;9.23;;;16.90;98.30;;;;;;4233599;28;20876;-82
2021/08/12 05:55:33;;;;;;;11.07;9.97;;;17.00;98.30;;;;;;4233989;28;20460;-82
2021/08/12 05:57:36;;;;;;;13.30;9.33;;;17.10;98.30;;;;;;4233904;28;20473;-83
2021/08/12 05:59:40;;;;;;;11.10;9.50;;;17.10;98.30;;;;;;4226904;28;20458;-82
2021/08/12 06:01:43;;;;;;;11.50;10.13;;;17.10;98.30;;;;;;4224779;28;20462;-83
2021/08/12 06:03:46;;;;;;;12.87;9.67;;;17.20;98.30;;;;;;4229142;28;20497;-83
2021/08/12 06:05:49;;;;;;;12.13;10.27;;;17.10;98.30;;;;;;4228084;28;20545;-83
2021/08/12 06:07:52;;;;;;;9.90;9.00;;;17.20;98.30;;;;;;4232183;28;20491;-82
2021/08/12 06:09:55;;;;;;;10.47;9.37;;;17.30;98.30;;;;;;4233628;28;20465;-82
2021/08/12 06:11:57;;;;;;;10.20;9.20;;;17.40;98.30;;;;;;4226671;28;20939;-82
2021/08/12 06:14:00;;;;;;;11.63;9.57;;;17.40;98.30;;;;;;4224158;28;20462;-82
2021/08/12 06:16:06;;;;;;;10.57;9.23;;;17.40;98.30;;;;;;4233471;28;20476;-82
2021/08/12 06:18:11;;;;;;;10.63;8.80;;;17.50;98.30;;;;;;4231888;28;20480;-82
2021/08/12 06:20:14;;;;;;;9.77;8.77;;;17.60;98.30;;;;;;4232607;28;20460;-83
2021/08/12 06:22:19;;;;;;;12.93;10.03;;;17.70;98.30;;;;;;4230322;28;20891;-83
2021/08/12 06:24:22;;;;;;;10.10;8.80;;;17.80;98.30;;;;;;4235314;28;20487;-83
2021/08/12 06:26:25;;;;;;;9.97;9.03;;;17.90;98.30;;;;;;4235233;28;20580;-85
2021/08/12 06:28:28;;;;;;;10.50;9.50;;;17.90;98.30;;;;;;4228390;28;20847;-82
2021/08/12 06:30:33;;;;;;;11.87;9.70;;;18.00;98.30;;;;;;4225027;28;20466;-85
2021/08/12 06:32:38;;;;;;;11.07;9.60;;;18.00;98.30;;;;;;4228418;28;20473;-83
2021/08/12 06:34:41;;;;;;;9.43;8.60;;;18.00;98.30;;;;;;4232289;28;20464;-83
2021/08/12 06:36:44;;;;;;;10.47;9.47;;;18.00;98.30;;;;;;4235716;28;20498;-84
2021/08/12 06:38:47;;;;;;;16.63;9.37;;;18.00;98.30;;;;;;4233851;28;20492;-83
2021/08/12 06:40:49;;;;;;;10.20;9.20;;;18.00;98.30;;;;;;4233280;28;20939;-83
2021/08/12 06:42:53;;;;;;;11.87;10.30;;;18.00;98.30;;;;;;4235214;28;20460;-84
2021/08/12 06:44:57;;;;;;;11.20;9.40;;;18.00;98.30;;;;;;4237909;28;20469;-83
2021/08/12 06:47:01;;;;;;;11.00;9.93;;;18.10;98.30;;;;;;4236981;28;20469;-85
2021/08/12 06:49:07;;;;;;;10.60;9.50;;;18.30;98.30;;;;;;4233299;28;20471;-83
2021/08/12 06:51:10;;;;;;;11.67;9.57;;;18.30;98.30;;;;;;4225127;28;20879;-84
2021/08/12 06:53:15;;;;;;;11.17;10.17;;;18.50;98.30;;;;;;4231675;28;20460;-84
2021/08/12 06:55:18;;;;;;;9.60;8.70;;;18.60;98.30;;;;;;4230250;28;20449;-83
2021/08/12 06:57:21;;;;;;;10.00;9.00;;;18.60;98.30;;;;;;4231349;28;20476;-83
2021/08/12 06:59:24;;;;;;;11.87;9.70;;;18.70;98.30;;;;;;4229966;28;20477;-83
2021/08/12 07:01:27;;;;;;;11.20;8.97;;;18.80;98.30;;;;;;4232459;28;20792;-83
2021/08/12 07:03:31;;;;;;;9.97;8.97;;;18.90;98.30;;;;;;4226578;28;21027;-83
2021/08/12 07:05:35;;;;;;;10.13;9.13;;;18.90;98.30;;;;;;4231932;28;20517;-82
2021/08/12 07:07:38;;;;;;;10.33;9.23;;;19.00;98.30;;;;;;4234205;28;20499;-82
2021/08/12 07:09:42;;;;;;;9.77;8.77;;;19.00;98.30;;;;;;4230638;28;20467;-83
2021/08/12 07:11:47;;;;;;;9.67;8.70;;;19.10;98.30;;;;;;4231053;28;20461;-83
2021/08/12 07:13:50;;;;;;;9.43;8.50;;;19.30;98.30;;;;;;4233041;28;20530;-82
2021/08/12 07:15:53;;;;;;;10.30;9.27;;;19.40;98.30;;;;;;4228508;28;20813;-83
2021/08/12 07:17:56;;;;;;;10.93;8.70;;;19.50;98.30;;;;;;4227373;28;20477;-83
2021/08/12 07:19:59;;;;;;;10.43;8.70;;;19.50;98.30;;;;;;4226573;28;21166;-83
2021/08/12 07:22:05;;;;;;;9.60;8.70;;;19.50;98.30;;;;;;4227245;28;20465;-84
2021/08/12 07:24:10;;;;;;;9.17;7.93;;;19.50;98.30;;;;;;4231847;28;20497;-83
2021/08/12 07:26:15;;;;;;;9.13;8.30;;;19.60;98.30;;;;;;4231526;28;20892;-83
2021/08/12 07:28:18;;;;;;;9.30;8.40;;;19.70;98.30;;;;;;4233433;28;20485;-84
2021/08/12 07:30:21;;;;;;;9.80;7.70;;;19.90;98.30;;;;;;4230118;28;20978;-83
2021/08/12 07:32:25;;;;;;;8.60;7.80;;;20.10;98.30;;;;;;4232600;28;20464;-83
2021/08/12 07:34:28;;;;;;;8.03;6.80;;;20.40;98.30;;;;;;4229680;28;20499;-83
2021/08/12 07:36:33;;;;;;;8.67;7.87;;;20.50;98.30;;;;;;4231994;28;20576;-84
2021/08/12 07:38:38;;;;;;;9.00;6.90;;;20.50;98.30;;;;;;4229910;28;20580;-83
2021/08/12 07:40:41;;;;;;;8.47;6.93;;;20.50;98.30;;;;;;4232317;28;20467;-83
2021/08/12 07:42:44;;;;;;;8.57;7.67;;;20.60;98.30;;;;;;4233948;28;20456;-83
2021/08/12 07:44:47;;;;;;;12.53;8.90;;;20.70;98.30;;;;;;4235093;28;20461;-82
2021/08/12 07:46:50;;;;;;;8.40;7.50;;;20.90;98.30;;;;;;4231786;28;20508;-83
2021/08/12 07:48:54;;;;;;;8.80;7.50;;;20.90;98.30;;;;;;4232837;28;20512;-83
2021/08/12 07:50:57;;;;;;;7.50;6.80;;;20.90;98.30;;;;;;4228860;28;20487;-84
2021/08/12 07:53:00;;;;;;;7.57;6.87;;;21.10;98.30;;;;;;4231665;28;20888;-83
2021/08/12 07:55:05;;;;;;;7.43;6.60;;;20.90;98.30;;;;;;4232732;28;20480;-83
2021/08/12 07:57:08;;;;;;;6.77;6.17;;;20.90;98.30;;;;;;4228994;28;20467;-83
2021/08/12 07:59:11;;;;;;;7.53;6.80;;;20.90;98.30;;;;;;4228857;28;20533;-84
2021/08/12 08:01:15;;;;;;;7.27;6.60;;;21.00;98.30;;;;;;4228832;28;20505;-83
2021/08/12 08:03:18;;;;;;;8.23;6.30;;;21.10;98.30;;;;;;4231128;28;20953;-83
2021/08/12 08:05:23;;;;;;;7.73;6.93;;;21.20;98.30;;;;;;4230143;28;20889;-84
2021/08/12 08:07:26;;;;;;;9.13;7.10;;;21.40;98.30;;;;;;4227443;28;20478;-83
2021/08/12 08:09:29;;;;;;;7.97;6.70;;;21.40;98.30;;;;;;4228108;28;20496;-83
2021/08/12 08:11:33;;;;;;;7.63;6.83;;;21.50;98.30;;;;;;4218068;28;20462;-83
2021/08/12 08:13:37;;;;;;;7.13;6.20;;;21.70;98.30;;;;;;4224379;28;20457;-83
2021/08/12 08:15:40;;;;;;;7.90;7.20;;;21.80;98.30;;;;;;4228520;28;20564;-83
2021/08/12 08:17:44;;;;;;;7.20;6.17;;;22.00;98.30;;;;;;4215806;28;20880;-82
2021/08/12 08:19:47;;;;;;;7.23;6.53;;;22.20;98.30;;;;;;4221388;28;20588;-83
2021/08/12 08:21:50;;;;;;;7.50;6.90;;;22.30;98.30;;;;;;4221948;28;20460;-83
2021/08/12 08:23:53;;;;;;;8.70;6.73;;;22.40;98.30;;;;;;4230079;28;20475;-83
2021/08/12 08:25:56;;;;;;;7.20;6.50;;;22.40;98.30;;;;;;4223143;28;20945;-82
2021/08/12 08:28:00;;;;;;;7.77;7.03;;;22.70;98.30;;;;;;4224567;28;20477;-83
2021/08/12 08:30:04;;;;;;;6.67;6.03;;;22.50;98.30;;;;;;4214802;28;20489;-83
2021/08/12 08:32:08;;;;;;;8.73;6.57;;;22.40;98.30;;;;;;4224491;28;20476;-83
2021/08/12 08:34:11;;;;;;;7.80;6.40;;;22.50;98.30;;;;;;4214731;28;20457;-83
2021/08/12 08:36:14;;;;;;;7.40;6.60;;;22.60;98.30;;;;;;4226084;28;20477;-83
2021/08/12 08:38:17;;;;;;;9.80;7.27;;;22.50;98.30;;;;;;4228464;28;20502;-83
2021/08/12 08:40:20;;;;;;;7.33;6.60;;;22.40;98.30;;;;;;4226779;28;20456;-83
2021/08/12 08:42:23;;;;;;;7.40;6.70;;;22.20;98.30;;;;;;4230796;28;20902;-83
2021/08/12 08:44:29;;;;;;;7.83;7.10;;;22.30;98.30;;;;;;4229694;28;20516;-83
2021/08/12 08:46:32;;;;;;;6.97;6.37;;;22.40;98.30;;;;;;4222071;28;20495;-83
2021/08/12 08:48:36;;;;;;;7.30;6.60;;;22.60;98.30;;;;;;4233570;28;20481;-83
2021/08/12 08:50:42;;;;;;;8.37;6.57;;;22.70;98.30;;;;;;4218508;28;20465;-83
2021/08/12 08:52:46;;;;;;;6.80;6.10;;;22.90;98.30;;;;;;4220595;28;20475;-83
2021/08/12 08:54:50;;;;;;;7.70;6.37;;;22.90;98.30;;;;;;4217777;28;20492;-82
2021/08/12 08:56:56;;;;;;;8.03;7.23;;;22.80;98.30;;;;;;4226239;28;20490;-82
2021/08/12 08:59:03;;;;;;;8.07;7.27;;;22.70;98.30;;;;;;4230127;28;20882;-83
2021/08/12 09:01:07;;;;;;;11.77;7.30;;;22.80;98.30;;;;;;4224688;28;20468;-82
2021/08/12 09:03:10;;;;;;;7.50;6.80;;;23.00;98.30;;;;;;4225790;28;20461;-83
2021/08/12 09:05:14;;;;;;;12.77;6.67;;;22.90;98.30;;;;;;4224400;28;20548;-82
2021/08/12 09:07:18;;;;;;;8.00;6.73;;;22.90;98.30;;;;;;4233018;28;20556;-82
2021/08/12 09:09:21;;;;;;;6.80;6.20;;;23.00;98.30;;;;;;4229532;28;21227;-82
2021/08/12 09:11:27;;;;;;;6.90;6.30;;;23.10;98.30;;;;;;4230220;28;20524;-83
2021/08/12 09:13:30;;;;;;;7.80;7.00;;;23.20;98.30;;;;;;4230244;28;20454;-84
2021/08/12 09:15:40;;;;;;;6.97;6.23;;;23.50;98.30;;;;;;4226834;28;21038;-83
2021/08/12 09:17:45;;;;;;;9.30;7.20;;;23.60;98.30;;;;;;4232650;28;21003;-82
2021/08/12 09:19:59;;;;;;;6.73;6.13;;;23.70;97.70;;;;;;4230420;28;20576;-82
2021/08/12 09:22:02;;;;;;;7.77;7.07;;;23.80;98.10;;;;;;4231096;28;20482;-82
2021/08/12 09:24:05;;;;;;;7.73;6.70;;;23.90;97.90;;;;;;4227486;28;20487;-82
2021/08/12 09:26:19;;;;;;;7.90;7.30;;;23.90;97.90;;;;;;4228641;28;21217;-82
2021/08/12 09:28:25;;;;;;;7.10;6.40;;;23.90;97.90;;;;;;4230505;28;20520;-82
2021/08/12 09:30:28;;;;;;;6.70;6.10;;;24.00;97.60;;;;;;4230039;28;20473;-82
2021/08/12 09:32:39;;;;;;;8.57;7.00;;;23.70;98.10;;;;;;4231861;28;20544;-82
2021/08/12 09:34:45;;;;;;;7.30;6.60;;;23.90;98.00;;;;;;4232286;28;20476;-82
2021/08/12 09:37:02;;;;;;;7.40;6.70;;;24.10;97.40;;;;;;4232732;28;21510;-82
2021/08/12 09:39:10;;;;;;;7.40;6.70;;;24.20;96.70;;;;;;4232097;28;20457;-83
2021/08/12 09:41:12;;;;;;;8.80;7.90;;;24.10;96.10;;;;;;4232693;28;20464;-83
2021/08/12 09:43:15;;;;;;;7.90;7.13;;;24.10;96.80;;;;;;4230910;28;20480;-82
2021/08/12 09:45:23;;;;;;;7.50;6.90;;;24.40;96.10;;;;;;4232051;28;20517;-82
2021/08/12 09:47:30;;;;;;;7.50;6.80;;;24.40;95.40;;;;;;4232701;28;20489;-82
2021/08/12 09:49:42;;;;;;;7.93;7.13;;;24.30;96.30;;;;;;4229517;28;20461;-82
2021/08/12 09:51:47;;;;;;;8.17;7.43;;;24.60;95.90;;;;;;4231848;28;20523;-82
2021/08/12 09:54:02;;;;;;;7.80;7.10;;;24.80;94.80;;;;;;4233226;28;20586;-83
2021/08/12 09:56:09;;;;;;;7.20;6.60;;;24.80;94.50;;;;;;4234756;28;20549;-82
2021/08/12 09:58:13;;;;;;;7.73;6.77;;;24.80;94.40;;;;;;4233908;28;20515;-83
2021/08/12 10:00:31;;;;;;;7.53;6.87;;;24.60;95.80;;;;;;4235645;28;20469;-82
2021/08/12 10:02:34;;;;;;;10.00;6.77;;;24.90;96.50;;;;;;4225888;28;20479;-82
2021/08/12 10:04:37;;;;;;;7.60;6.90;;;25.10;95.50;;;;;;4224367;28;20969;-83
2021/08/12 10:06:41;;;;;;;7.83;7.13;;;25.10;93.60;;;;;;4229202;28;20469;-84
2021/08/12 10:08:45;;;;;;;7.87;7.17;;;25.10;94.10;;;;;;4226362;28;20987;-83
2021/08/12 10:10:48;;;;;;;8.43;7.30;;;25.10;94.40;;;;;;4227135;28;20555;-82
2021/08/12 10:12:52;;;;;;;7.40;6.70;;;25.40;94.30;;;;;;4231732;28;20544;-83
2021/08/12 10:14:55;;;;;;;7.93;7.13;;;25.60;93.50;;;;;;4229211;28;20477;-84
2021/08/12 10:16:59;;;;;;;7.70;7.00;;;25.70;93.10;;;;;;4219803;28;20482;-83
2021/08/12 10:19:04;;;;;;;9.30;7.30;;;26.00;93.00;;;;;;4222684;28;20485;-82
2021/08/12 10:21:08;;;;;;;8.50;7.23;;;26.10;90.90;;;;;;4228408;28;20483;-83
2021/08/12 10:23:12;;;;;;;8.53;7.67;;;26.10;91.10;;;;;;4219385;28;20553;-83
2021/08/12 10:25:18;;;;;;;9.33;7.07;;;26.00;90.70;;;;;;4226907;28;20541;-83
2021/08/12 10:27:21;;;;;;;7.50;6.80;;;25.90;89.90;;;;;;4222276;28;20462;-83
2021/08/12 10:29:28;;;;;;;7.80;7.10;;;25.90;91.30;;;;;;4225889;28;20470;-85
2021/08/12 10:31:32;;;;;;;8.00;7.30;;;26.10;91.20;;;;;;4224564;28;20474;-82
2021/08/12 10:33:36;;;;;;;8.97;8.07;;;26.00;91.60;;;;;;4222995;28;20471;-83
2021/08/12 10:35:39;;;;;;;8.60;7.80;;;26.10;89.70;;;;;;4222369;28;21064;-83
2021/08/12 10:37:43;;;;;;;8.40;6.67;;;26.00;90.90;;;;;;4227415;28;20489;-83